Terminal Aerodrome Forecast
Issued by NWS

Home | Current Version | Previous Version | Text Only | Print | Product List | Glossary On
Versions: 1 2 3 4 5 6 7 8 9 10 11 12 13 14 15 16 17 18 19 20 21 22
000
FTUS46 KMFR 050539
TAFOTH
TAF
KOTH 050539Z 0506/0606 31005KT 3SM BR OVC002
      TEMPO 0506/0508 1SM BR OVC002
     FM051200 15003KT 1/2SM FG OVC001
     FM051600 VRB03KT 5SM BR SCT006
     FM051800 25008KT P6SM SCT020 BKN250=

USA.gov is the U.S. government's official web portal to all federal, state and local government web resources and services.